Time;durP1;ratioP1;P1;durP2;ratioP2;P2;SDS_P1;SDS_P2;PMS_P1;PMS_P2;Temp;Humidity;BMP_temperature;BMP_pressure;BME280_temperature;BME280_humidity;BME280_pressure;Samples;Min_cycle;Max_cycle;Signal;HPM_P1;HPM_P2
2021/12/28 00:00:39;;;;;;;37.40;17.40;;;;;;;-7.62;67.32;100458.02;83414;1347;24754;-71
2021/12/28 00:02:54;;;;;;;36.70;17.10;;;;;;;-7.57;67.71;100461.91;83395;1347;25510;-69
2021/12/28 00:05:03;;;;;;;38.80;15.60;;;;;;;-7.51;67.40;100457.72;83399;1350;22631;-70
2021/12/28 00:07:15;;;;;;;35.70;17.30;;;;;;;-7.55;67.15;100458.09;83344;1348;22741;-73
2021/12/28 00:09:25;;;;;;;33.60;16.70;;;;;;;-7.56;67.35;100454.82;83432;1347;22638;-75
2021/12/28 00:11:34;;;;;;;37.90;16.90;;;;;;;-7.55;67.75;100454.85;83381;1347;22713;-72
2021/12/28 00:13:44;;;;;;;40.50;16.80;;;;;;;-7.53;67.43;100454.08;83422;1347;22723;-72
2021/12/28 00:16:13;;;;;;;33.00;14.80;;;;;;;-7.56;67.40;100455.50;83415;1347;22616;-73
2021/12/28 00:18:23;;;;;;;39.40;16.80;;;;;;;-7.60;67.51;100450.61;83415;1346;24251;-70
2021/12/28 00:20:38;;;;;;;36.00;16.90;;;;;;;-7.61;67.67;100448.91;83325;1349;22659;-71
2021/12/28 00:22:50;;;;;;;32.20;15.30;;;;;;;-7.60;67.62;100452.48;83417;1348;22661;-69
2021/12/28 00:25:00;;;;;;;42.40;17.30;;;;;;;-7.66;67.50;100447.35;83426;1347;25304;-70
2021/12/28 00:27:12;;;;;;;37.20;17.20;;;;;;;-7.71;68.01;100444.96;83407;1347;22829;-74
2021/12/28 00:29:25;;;;;;;33.90;15.90;;;;;;;-7.67;68.02;100440.37;83406;1348;22635;-74
2021/12/28 00:31:34;;;;;;;40.30;16.80;;;;;;;-7.70;67.95;100441.45;83407;1347;25270;-69
2021/12/28 00:33:47;;;;;;;35.80;15.70;;;;;;;-7.71;68.12;100443.63;83326;1350;26518;-69
2021/12/28 00:36:00;;;;;;;41.10;16.60;;;;;;;-7.71;68.13;100448.20;83406;1347;22647;-69
2021/12/28 00:38:18;;;;;;;32.50;17.10;;;;;;;-7.73;68.14;100449.13;83419;1347;22613;-69
2021/12/28 00:40:31;;;;;;;39.90;16.70;;;;;;;-7.81;68.14;100448.34;83421;1347;25469;-70
2021/12/28 00:42:43;;;;;;;40.70;16.40;;;;;;;-7.87;68.32;100443.38;83459;1347;22995;-70
2021/12/28 00:44:56;;;;;;;35.20;18.10;;;;;;;-7.93;68.49;100447.22;83412;1347;22632;-70
2021/12/28 00:47:10;;;;;;;39.10;16.60;;;;;;;-7.92;68.52;100446.73;83468;1347;22628;-73
2021/12/28 00:49:23;;;;;;;40.70;17.40;;;;;;;-7.96;68.71;100445.39;83337;1349;26554;-73
2021/12/28 00:51:32;;;;;;;43.60;17.60;;;;;;;-7.96;68.85;100448.11;83454;1347;24305;-70
2021/12/28 00:53:42;;;;;;;32.60;16.70;;;;;;;-7.95;68.90;100450.51;83442;1348;22608;-69
2021/12/28 00:55:51;;;;;;;39.80;18.30;;;;;;;-8.01;68.93;100448.42;83414;1347;22639;-69
2021/12/28 00:58:04;;;;;;;38.30;17.30;;;;;;;-8.03;69.00;100445.13;83333;1348;24272;-70
2021/12/28 01:00:19;;;;;;;35.90;17.20;;;;;;;-8.08;69.02;100449.20;83437;1346;22781;-69
2021/12/28 01:02:28;;;;;;;38.00;16.90;;;;;;;-8.09;69.14;100449.30;83425;1347;24221;-74
2021/12/28 01:04:40;;;;;;;38.60;17.70;;;;;;;-8.05;69.35;100447.59;83399;1347;24071;-73
2021/12/28 01:06:49;;;;;;;38.00;17.60;;;;;;;-8.04;69.30;100446.79;83401;1349;22628;-70
2021/12/28 01:08:59;;;;;;;36.00;16.40;;;;;;;-8.06;69.29;100450.77;83348;1349;22724;-70
2021/12/28 01:11:11;;;;;;;42.80;18.60;;;;;;;-8.13;69.31;100445.79;83406;1347;24279;-71
2021/12/28 01:13:20;;;;;;;45.70;18.00;;;;;;;-8.18;69.52;100441.02;83431;1348;24334;-70
2021/12/28 01:15:33;;;;;;;31.70;15.60;;;;;;;-8.21;69.45;100440.40;83424;1351;22628;-70
2021/12/28 01:17:43;;;;;;;39.80;16.70;;;;;;;-8.25;69.61;100439.05;83437;1350;26532;-73
2021/12/28 01:19:55;;;;;;;39.40;16.80;;;;;;;-8.26;69.78;100442.41;83409;1345;22790;-73
2021/12/28 01:22:05;;;;;;;37.00;17.80;;;;;;;-8.26;69.74;100441.73;82742;1345;1003711;-73
2021/12/28 01:24:15;;;;;;;37.20;15.60;;;;;;;-8.25;69.89;100440.91;83346;1350;22830;-74
2021/12/28 01:26:24;;;;;;;36.70;16.80;;;;;;;-8.25;69.98;100439.88;83418;1346;22632;-70
2021/12/28 01:28:34;;;;;;;39.30;16.90;;;;;;;-8.28;69.92;100434.38;83421;1347;22609;-70
2021/12/28 01:30:43;;;;;;;46.00;19.60;;;;;;;-8.29;69.96;100426.88;83389;1347;23898;-70
2021/12/28 01:32:53;;;;;;;35.90;16.50;;;;;;;-8.32;70.13;100429.85;83409;1347;22632;-74
2021/12/28 01:35:02;;;;;;;39.00;16.50;;;;;;;-8.32;70.04;100424.94;83395;1347;22607;-74
2021/12/28 01:37:11;;;;;;;34.50;16.90;;;;;;;-8.29;70.16;100422.81;83405;1345;23004;-75
2021/12/28 01:39:20;;;;;;;36.60;17.00;;;;;;;-8.28;70.18;100422.31;83389;1347;22593;-74
2021/12/28 01:41:29;;;;;;;38.80;17.20;;;;;;;-8.26;70.21;100421.23;83394;1348;24115;-70
2021/12/28 01:43:43;;;;;;;43.50;18.70;;;;;;;-8.24;70.17;100425.89;83379;1343;22660;-70
2021/12/28 01:45:54;;;;;;;37.90;16.30;;;;;;;-8.22;70.19;100428.50;83404;1347;22639;-70
2021/12/28 01:48:04;;;;;;;;;;;;;;;-8.21;70.21;100431.06;83452;1348;24342;-70
2021/12/28 01:50:14;;;;;;;;;;;;;;;-8.27;70.23;100426.11;82720;1347;1003117;-68
2021/12/28 01:52:23;;;;;;;39.60;16.90;;;;;;;-8.28;70.41;100421.48;83415;1348;22625;-70
2021/12/28 01:54:35;;;;;;;38.70;16.80;;;;;;;-8.27;70.36;100416.45;83414;1347;22619;-70
2021/12/28 01:56:48;;;;;;;35.70;17.70;;;;;;;-8.29;70.27;100415.55;83404;1345;22829;-70
2021/12/28 01:58:57;;;;;;;35.70;17.40;;;;;;;-8.36;70.23;100414.12;83381;1345;22704;-71
2021/12/28 02:01:09;;;;;;;33.90;15.70;;;;;;;-8.37;70.51;100409.55;82739;1347;1003546;-73
2021/12/28 02:03:22;;;;;;;39.30;16.20;;;;;;;-8.39;70.46;100409.27;83325;1349;22978;-73
2021/12/28 02:05:31;;;;;;;35.90;16.60;;;;;;;-8.42;70.52;100412.86;83294;1350;24023;-74
2021/12/28 02:07:42;;;;;;;37.40;16.50;;;;;;;-8.44;70.53;100414.81;83440;1346;22627;-74
2021/12/28 02:09:54;;;;;;;34.10;14.80;;;;;;;-8.41;70.76;100413.44;83394;1346;22628;-74
2021/12/28 02:12:08;;;;;;;34.70;17.20;;;;;;;-8.41;70.69;100413.61;83378;1347;24232;-69
2021/12/28 02:14:21;;;;;;;36.10;17.30;;;;;;;-8.43;70.65;100413.67;83418;1347;22641;-70
2021/12/28 02:16:33;;;;;;;37.70;17.70;;;;;;;-8.41;70.92;100413.95;83380;1350;23904;-70
2021/12/28 02:18:42;;;;;;;34.60;16.80;;;;;;;-8.37;70.75;100412.08;82618;1350;1003130;-69
2021/12/28 02:20:54;;;;;;;34.10;17.50;;;;;;;-8.37;70.90;100409.89;83412;1350;22723;-71
2021/12/28 02:23:03;;;;;;;39.60;17.70;;;;;;;-8.37;70.86;100407.80;83397;1346;25310;-75
2021/12/28 02:25:13;;;;;;;34.50;17.40;;;;;;;-8.37;70.99;100406.67;83330;1349;22640;-74
2021/12/28 02:27:23;;;;;;;34.90;17.00;;;;;;;-8.40;70.80;100406.70;83445;1348;22635;-73
2021/12/28 02:29:32;;;;;;;35.60;19.30;;;;;;;-8.49;71.02;100406.52;83431;1346;24294;-74
2021/12/28 02:31:42;;;;;;;37.80;19.30;;;;;;;-8.62;70.90;100404.50;83411;1347;23090;-70
2021/12/28 02:33:58;;;;;;;35.70;16.60;;;;;;;-8.71;71.32;100400.91;82707;1348;1003529;-70
2021/12/28 02:36:11;;;;;;;33.70;15.60;;;;;;;-8.80;71.49;100397.20;83434;1347;22631;-74
2021/12/28 02:38:23;;;;;;;48.30;21.10;;;;;;;-8.88;71.78;100389.61;83408;1347;23023;-69
2021/12/28 02:40:33;;;;;;;38.60;18.50;;;;;;;-8.92;72.07;100386.23;83178;1347;316311;-68
2021/12/28 02:42:42;;;;;;;41.20;18.30;;;;;;;-8.95;72.03;100382.73;83436;1347;22691;-74
2021/12/28 02:45:07;;;;;;;43.30;18.20;;;;;;;-8.97;72.19;100384.84;83401;1347;22698;-72
2021/12/28 02:47:21;;;;;;;43.00;18.00;;;;;;;-8.99;72.34;100382.39;83397;1347;22619;-73
2021/12/28 02:49:33;;;;;;;37.10;14.40;;;;;;;-8.98;72.61;100379.89;83425;1347;22624;-75
2021/12/28 02:51:42;;;;;;;43.40;20.80;;;;;;;-8.98;72.80;100376.68;83433;1347;22721;-71
2021/12/28 02:53:50;;;;;;;52.70;20.80;;;;;;;-8.94;72.73;100377.17;83413;1347;22629;-69
2021/12/28 02:56:04;;;;;;;70.10;24.20;;;;;;;-8.92;72.80;100368.47;82747;1347;1003037;-69
2021/12/28 02:58:31;;;;;;;44.80;20.30;;;;;;;-8.88;73.08;100361.55;83383;1348;22703;-73
2021/12/28 03:00:45;;;;;;;63.50;24.10;;;;;;;-8.86;72.82;100359.94;82756;1341;1003000;-73
2021/12/28 03:02:58;;;;;;;64.20;22.60;;;;;;;-8.79;72.89;100360.52;83327;1349;22626;-69
2021/12/28 03:05:11;;;;;;;46.80;20.00;;;;;;;-8.75;72.79;100370.84;83427;1347;23968;-74
2021/12/28 03:07:23;;;;;;;45.40;20.30;;;;;;;-8.74;72.76;100367.30;83446;1346;22642;-69
2021/12/28 03:09:35;;;;;;;42.60;19.60;;;;;;;-8.73;72.93;100367.02;83414;1348;25484;-69
2021/12/28 03:11:44;;;;;;;45.90;22.10;;;;;;;-8.71;72.83;100366.29;83442;1347;22828;-71
2021/12/28 03:13:55;;;;;;;44.60;20.10;;;;;;;-8.67;72.86;100360.63;83434;1347;22608;-70
2021/12/28 03:16:05;;;;;;;54.10;22.80;;;;;;;-8.65;72.85;100358.73;83417;1339;22958;-69
2021/12/28 03:18:14;;;;;;;45.80;20.50;;;;;;;-8.61;72.71;100351.27;83407;1345;22774;-75
2021/12/28 03:20:23;;;;;;;50.50;19.80;;;;;;;-8.55;72.75;100343.53;83436;1347;22598;-77
2021/12/28 03:22:32;;;;;;;49.90;21.90;;;;;;;-8.50;72.73;100339.50;83416;1346;22648;-77
2021/12/28 03:24:41;;;;;;;47.30;19.00;;;;;;;-8.51;72.67;100334.91;82696;1347;1003819;-76
2021/12/28 03:26:53;;;;;;;34.10;18.20;;;;;;;-8.51;72.52;100335.91;83341;1349;22633;-77
2021/12/28 03:29:02;;;;;;;42.50;20.10;;;;;;;-8.52;72.65;100342.10;83433;1347;25465;-77
2021/12/28 03:31:13;;;;;;;56.30;22.50;;;;;;;-8.54;72.65;100340.88;83393;1347;24026;-74
2021/12/28 03:33:26;;;;;;;40.40;18.30;;;;;;;-8.49;72.86;100342.39;83431;1350;24297;-71
2021/12/28 03:35:36;;;;;;;35.90;17.40;;;;;;;-8.46;72.88;100345.23;83400;1347;22617;-72
2021/12/28 03:37:48;;;;;;;38.80;19.30;;;;;;;-8.48;72.79;100342.11;82701;1341;1003176;-71
2021/12/28 03:39:57;;;;;;;38.60;16.80;;;;;;;-8.48;72.83;100335.50;83334;1348;22734;-72
2021/12/28 03:42:10;;;;;;;43.70;17.80;;;;;;;-8.48;72.94;100329.74;83478;1341;22687;-74
2021/12/28 03:44:23;;;;;;;33.30;17.60;;;;;;;-8.51;73.04;100330.16;83412;1347;22842;-72
2021/12/28 03:46:33;;;;;;;52.30;22.30;;;;;;;-8.54;73.02;100328.02;83433;1346;23015;-69
2021/12/28 03:48:43;;;;;;;47.10;20.60;;;;;;;-8.52;73.11;100324.39;83445;1347;23079;-71
2021/12/28 03:50:56;;;;;;;41.30;18.20;;;;;;;-8.53;73.35;100326.55;82719;1347;1003701;-72
2021/12/28 03:53:05;;;;;;;40.20;20.40;;;;;;;-8.51;73.31;100325.94;83333;1349;22619;-72
2021/12/28 03:55:15;;;;;;;43.30;16.80;;;;;;;-8.49;73.29;100325.33;83438;1348;25494;-73
2021/12/28 03:57:24;;;;;;;38.70;18.50;;;;;;;-8.49;73.23;100322.45;83395;1347;22644;-69
2021/12/28 03:59:36;;;;;;;39.30;17.70;;;;;;;-8.50;73.28;100327.16;83416;1347;22631;-70
2021/12/28 04:01:45;;;;;;;41.00;19.50;;;;;;;-8.49;73.26;100321.61;82724;1347;1003168;-70
2021/12/28 04:03:55;;;;;;;37.20;18.70;;;;;;;-8.49;73.41;100316.02;83345;1349;22597;-70
2021/12/28 04:06:08;;;;;;;40.00;16.80;;;;;;;-8.49;73.31;100316.02;83418;1349;24014;-70
2021/12/28 04:08:22;;;;;;;41.90;19.40;;;;;;;-8.48;73.22;100318.60;83419;1347;22686;-70
2021/12/28 04:10:48;;;;;;;38.00;19.50;;;;;;;-8.44;73.22;100319.58;83419;1347;22623;-70
2021/12/28 04:13:01;;;;;;;39.20;17.80;;;;;;;-8.45;73.40;100319.91;83445;1342;23263;-75
2021/12/28 04:15:14;;;;;;;41.10;17.50;;;;;;;-8.46;73.37;100314.95;83403;1350;22605;-73
2021/12/28 04:17:23;;;;;;;36.40;16.80;;;;;;;-8.46;73.25;100313.78;83413;1347;25990;-73
2021/12/28 04:19:33;;;;;;;46.40;19.50;;;;;;;-8.46;73.37;100306.02;83427;1338;25330;-74
2021/12/28 04:21:42;;;;;;;41.50;18.30;;;;;;;-8.46;73.44;100305.66;83423;1344;22752;-72
2021/12/28 04:23:54;;;;;;;36.60;18.20;;;;;;;-8.45;73.35;100305.70;82763;1347;1003137;-73
2021/12/28 04:26:05;;;;;;;37.80;17.70;;;;;;;-8.45;73.43;100303.48;83373;1346;26084;-73
2021/12/28 04:28:15;;;;;;;44.20;19.30;;;;;;;-8.45;73.32;100297.92;83395;1349;22706;-73
2021/12/28 04:30:24;;;;;;;40.30;16.70;;;;;;;-8.44;73.53;100293.02;83409;1350;21952;-74
2021/12/28 04:32:33;;;;;;;38.60;19.10;;;;;;;-8.47;73.39;100291.60;83415;1348;22626;-73
2021/12/28 04:34:45;;;;;;;36.90;18.20;;;;;;;-8.45;73.51;100292.99;83406;1351;24241;-73
2021/12/28 04:36:55;;;;;;;40.30;19.50;;;;;;;-8.46;73.51;100292.12;83455;1348;22616;-69
2021/12/28 04:39:04;;;;;;;35.50;17.40;;;;;;;-8.48;73.60;100293.73;83402;1347;22632;-70
2021/12/28 04:41:14;;;;;;;35.30;19.00;;;;;;;-8.48;73.64;100290.17;83428;1347;22685;-72
2021/12/28 04:43:23;;;;;;;38.70;18.40;;;;;;;-8.50;73.73;100294.19;83442;1349;22771;-72
2021/12/28 04:45:32;;;;;;;42.10;19.30;;;;;;;-8.52;73.86;100286.31;83408;1347;22606;-74
2021/12/28 04:47:41;;;;;;;33.20;17.50;;;;;;;-8.53;73.88;100291.84;83458;1350;22702;-73
2021/12/28 04:49:53;;;;;;;35.10;17.00;;;;;;;-8.54;74.10;100292.67;83445;1349;24274;-72
2021/12/28 04:52:04;;;;;;;40.60;17.60;;;;;;;-8.55;73.96;100298.71;82729;1347;1003484;-70
2021/12/28 04:54:14;;;;;;;36.90;18.40;;;;;;;-8.56;74.27;100296.81;83398;1347;24221;-69
2021/12/28 04:56:24;;;;;;;46.80;19.90;;;;;;;-8.58;74.04;100295.73;82721;1347;1003667;-70
2021/12/28 04:58:36;;;;;;;37.10;18.70;;;;;;;-8.59;74.27;100296.05;82689;1345;1003095;-69
2021/12/28 05:00:47;;;;;;;36.20;18.50;;;;;;;-8.60;74.41;100299.71;83346;1349;22637;-72
2021/12/28 05:03:01;;;;;;;38.50;17.60;;;;;;;-8.56;74.45;100295.13;83421;1347;24298;-74
2021/12/28 05:05:12;;;;;;;34.80;18.50;;;;;;;-8.54;74.30;100296.55;83429;1347;22633;-76
2021/12/28 05:07:22;;;;;;;37.10;17.00;;;;;;;-8.52;74.36;100289.34;83406;1348;25474;-69
2021/12/28 05:09:31;;;;;;;38.00;18.20;;;;;;;-8.52;74.49;100289.88;83422;1347;22882;-69
2021/12/28 05:11:40;;;;;;;38.10;16.90;;;;;;;-8.52;74.81;100295.27;83469;1347;26124;-70
2021/12/28 05:13:50;;;;;;;33.80;17.50;;;;;;;-8.53;74.91;100298.09;83406;1348;24179;-68
2021/12/28 05:15:59;;;;;;;44.50;18.00;;;;;;;-8.52;74.72;100301.38;83425;1349;22864;-69
2021/12/28 05:18:12;;;;;;;38.60;16.50;;;;;;;-8.49;74.81;100298.43;83401;1347;23241;-73
2021/12/28 05:20:21;;;;;;;43.70;18.00;;;;;;;-8.48;74.79;100298.45;83402;1347;22608;-73
2021/12/28 05:22:30;;;;;;;40.50;18.90;;;;;;;-8.46;74.88;100299.56;83456;1349;22600;-69
2021/12/28 05:24:43;;;;;;;37.40;17.50;;;;;;;-8.46;75.13;100296.02;83431;1347;22648;-70
2021/12/28 05:26:52;;;;;;;37.20;18.40;;;;;;;-8.41;75.05;100291.64;83412;1347;22661;-70
2021/12/28 05:29:02;;;;;;;41.40;17.70;;;;;;;-8.36;75.09;100291.80;83344;1344;22681;-69
2021/12/28 05:31:14;;;;;;;34.90;17.60;;;;;;;-8.29;74.98;100293.02;83442;1349;22971;-72
2021/12/28 05:33:24;;;;;;;40.10;16.40;;;;;;;-8.24;75.14;100293.71;83431;1345;22619;-74
2021/12/28 05:35:36;;;;;;;35.70;18.10;;;;;;;-8.23;74.98;100285.63;83431;1347;22624;-73
2021/12/28 05:37:46;;;;;;;41.40;18.70;;;;;;;-8.17;74.96;100285.01;83427;1347;22738;-74
2021/12/28 05:39:55;;;;;;;38.80;19.30;;;;;;;-8.09;74.95;100283.27;83419;1347;22618;-74
2021/12/28 05:42:05;;;;;;;34.00;14.80;;;;;;;-8.02;74.93;100292.67;83415;1347;22859;-71
2021/12/28 05:44:15;;;;;;;37.00;17.60;;;;;;;-7.94;75.00;100296.47;83437;1347;25384;-70
2021/12/28 05:46:28;;;;;;;37.50;17.50;;;;;;;-7.85;74.81;100295.80;83429;1347;22626;-70
2021/12/28 05:48:37;;;;;;;34.40;16.50;;;;;;;-7.78;74.95;100294.67;83419;1347;22706;-71
2021/12/28 05:50:50;;;;;;;38.50;17.90;;;;;;;-7.71;74.86;100292.04;83434;1347;22703;-71
2021/12/28 05:52:59;;;;;;;34.10;17.10;;;;;;;-7.62;74.92;100283.20;83419;1347;26550;-71
2021/12/28 05:55:10;;;;;;;33.80;17.90;;;;;;;-7.58;74.73;100286.05;83409;1344;22593;-71
2021/12/28 05:57:19;;;;;;;39.20;18.70;;;;;;;-7.50;74.80;100290.70;83450;1348;24760;-74
2021/12/28 05:59:28;;;;;;;36.60;16.90;;;;;;;-7.43;74.57;100297.72;83443;1347;22640;-75
2021/12/28 06:01:38;;;;;;;33.70;17.80;;;;;;;-7.38;74.55;100304.50;83437;1347;24124;-71
2021/12/28 06:03:47;;;;;;;40.00;17.70;;;;;;;-7.34;74.57;100305.15;83448;1347;22690;-71
2021/12/28 06:06:00;;;;;;;39.90;18.70;;;;;;;-7.30;74.65;100304.09;83436;1346;22641;-70
2021/12/28 06:08:09;;;;;;;35.50;18.30;;;;;;;-7.25;74.54;100297.10;83385;1348;24103;-73
2021/12/28 06:10:19;;;;;;;38.60;19.20;;;;;;;-7.24;74.44;100300.19;83439;1341;22638;-73
2021/12/28 06:12:28;;;;;;;36.40;19.10;;;;;;;-7.25;74.44;100307.63;83409;1347;25489;-74
2021/12/28 06:14:37;;;;;;;39.40;19.00;;;;;;;-7.31;74.34;100305.91;83424;1345;22640;-74
2021/12/28 06:16:51;;;;;;;41.20;20.80;;;;;;;-7.33;74.40;100305.83;82740;1347;1003156;-70
2021/12/28 06:19:03;;;;;;;37.20;18.10;;;;;;;-7.35;74.46;100307.80;83336;1341;22631;-70
2021/12/28 06:21:12;;;;;;;40.30;18.70;;;;;;;-7.37;74.49;100306.91;82736;1347;1003054;-72
2021/12/28 06:23:21;;;;;;;40.20;17.90;;;;;;;-7.40;74.84;100304.61;83420;1347;22645;-73
2021/12/28 06:25:30;;;;;;;38.30;19.30;;;;;;;-7.43;74.65;100297.56;83436;1347;22609;-73
2021/12/28 06:27:39;;;;;;;40.90;18.20;;;;;;;-7.42;74.93;100294.03;83422;1348;24016;-74
2021/12/28 06:29:48;;;;;;;43.20;19.70;;;;;;;-7.42;75.23;100291.50;83445;1349;22616;-74
2021/12/28 06:32:00;;;;;;;34.20;17.70;;;;;;;-7.39;75.37;100292.25;83439;1345;22699;-73
2021/12/28 06:34:09;;;;;;;38.70;18.40;;;;;;;-7.36;75.28;100288.46;83399;1344;22883;-74
2021/12/28 06:36:18;;;;;;;34.00;18.50;;;;;;;-7.30;75.46;100282.20;83431;1346;22657;-73
2021/12/28 06:38:30;;;;;;;60.10;28.10;;;;;;;-7.24;75.42;100282.08;83401;1349;22625;-73
2021/12/28 06:40:40;;;;;;;46.00;23.40;;;;;;;-7.17;75.25;100282.79;83421;1347;22776;-75
2021/12/28 06:42:50;;;;;;;35.90;18.00;;;;;;;-7.10;75.15;100281.83;83447;1348;25352;-69
2021/12/28 06:45:01;;;;;;;;;;;;;;;-7.04;75.18;100278.14;83447;1347;22612;-70
2021/12/28 06:47:10;;;;;;;32.20;14.00;;;;;;;-7.03;75.19;100279.86;83422;1350;22633;-70
2021/12/28 06:49:21;;;;;;;43.40;18.50;;;;;;;-6.99;75.21;100281.31;82757;1347;1016180;-69
2021/12/28 06:51:31;;;;;;;36.10;18.20;;;;;;;-6.94;75.28;100286.23;83337;1344;22662;-74
2021/12/28 06:53:40;;;;;;;;;;;;;;;-6.88;75.05;100288.97;83437;1348;22627;-74
2021/12/28 06:55:49;;;;;;;34.50;17.90;;;;;;;-6.86;75.12;100298.34;83451;1347;25761;-74
2021/12/28 06:58:01;;;;;;;39.60;20.30;;;;;;;-6.81;74.89;100300.52;83450;1346;22956;-69
2021/12/28 07:00:18;;;;;;;39.90;19.40;;;;;;;-6.79;75.00;100295.70;83404;1347;22620;-69
2021/12/28 07:02:31;;;;;;;37.00;19.90;;;;;;;-6.78;74.80;100293.67;83446;1348;22637;-69
2021/12/28 07:04:40;;;;;;;35.80;18.10;;;;;;;-6.82;74.70;100296.11;83407;1347;22727;-70
2021/12/28 07:06:51;;;;;;;45.00;20.70;;;;;;;-6.86;74.82;100291.55;83437;1347;22784;-69
2021/12/28 07:09:05;;;;;;;39.20;19.30;;;;;;;-6.91;74.91;100295.46;83423;1347;22614;-71
2021/12/28 07:11:15;;;;;;;34.50;18.90;;;;;;;-6.97;74.93;100290.36;83447;1349;24117;-74
2021/12/28 07:13:26;;;;;;;38.60;20.40;;;;;;;-7.00;75.00;100295.88;83418;1347;25468;-73
2021/12/28 07:15:34;;;;;;;;;;;;;;;-7.02;75.06;100288.71;83439;1350;22795;-73
2021/12/28 07:17:43;;;;;;;38.30;19.70;;;;;;;-7.04;75.31;100291.00;83430;1349;22817;-70
2021/12/28 07:19:52;;;;;;;39.30;18.90;;;;;;;-7.06;75.48;100286.21;83347;1350;24164;-68
2021/12/28 07:22:05;;;;;;;42.50;19.60;;;;;;;-7.05;75.35;100284.02;82701;1347;1003078;-69
2021/12/28 07:24:17;;;;;;;40.40;19.50;;;;;;;-7.00;75.27;100282.98;83424;1349;24961;-69
2021/12/28 07:26:27;;;;;;;36.10;18.90;;;;;;;-6.95;75.37;100281.79;83403;1347;22619;-72
2021/12/28 07:28:39;;;;;;;37.80;18.70;;;;;;;-6.90;75.53;100281.77;83434;1347;22706;-71
2021/12/28 07:30:49;;;;;;;38.70;18.20;;;;;;;-6.84;75.59;100279.23;83449;1345;22613;-73
2021/12/28 07:32:58;;;;;;;36.70;17.80;;;;;;;-6.77;75.43;100269.97;83443;1347;22744;-67
2021/12/28 07:35:11;;;;;;;34.60;17.80;;;;;;;-6.70;75.49;100272.69;83428;1347;22853;-69
2021/12/28 07:37:21;;;;;;;36.70;18.30;;;;;;;-6.67;75.33;100268.38;82773;1347;1003960;-74
2021/12/28 07:39:33;;;;;;;;;;;;;;;-6.60;75.24;100268.42;83336;1348;22589;-72
2021/12/28 07:41:45;;;;;;;40.40;18.40;;;;;;;-6.56;75.18;100260.94;83444;1350;24074;-67
2021/12/28 07:43:55;;;;;;;33.80;17.90;;;;;;;-6.49;75.21;100260.95;83454;1347;22775;-68
2021/12/28 07:46:06;;;;;;;34.00;17.80;;;;;;;-6.43;75.09;100257.88;83413;1347;22637;-68
2021/12/28 07:48:16;;;;;;;36.10;18.60;;;;;;;-6.41;74.90;100250.98;83428;1347;22622;-70
2021/12/28 07:50:26;;;;;;;25.40;15.20;;;;;;;-6.40;75.05;100253.03;82734;1349;1003405;-71
2021/12/28 07:52:39;;;;;;;35.80;19.00;;;;;;;-6.40;74.94;100256.98;83334;1350;22682;-71
2021/12/28 07:54:49;;;;;;;32.80;18.10;;;;;;;-6.38;75.07;100257.51;83421;1348;23978;-70
2021/12/28 07:56:59;;;;;;;44.10;21.50;;;;;;;-6.39;75.04;100258.34;82688;1345;1003045;-71
2021/12/28 07:59:15;;;;;;;37.30;20.60;;;;;;;-6.41;75.20;100258.11;83414;1347;25498;-71
2021/12/28 08:01:27;;;;;;;43.60;21.70;;;;;;;-6.44;75.47;100258.37;82716;1347;1002996;-68
2021/12/28 08:03:36;;;;;;;40.20;21.00;;;;;;;-6.44;75.32;100263.98;83290;1349;24302;-69
2021/12/28 08:05:46;;;;;;;41.00;22.10;;;;;;;-6.41;75.32;100255.71;83439;1344;22632;-71
2021/12/28 08:07:58;;;;;;;43.50;22.10;;;;;;;-6.39;75.50;100261.56;83424;1339;22984;-72
2021/12/28 08:10:10;;;;;;;41.50;21.90;;;;;;;-6.39;75.42;100254.29;83434;1341;22756;-74
2021/12/28 08:12:19;;;;;;;44.20;23.80;;;;;;;-6.39;75.53;100258.17;83453;1346;22715;-67
2021/12/28 08:14:28;;;;;;;42.70;21.40;;;;;;;-6.40;75.48;100257.29;83403;1347;22607;-72
2021/12/28 08:16:41;;;;;;;41.50;22.80;;;;;;;-6.39;75.53;100251.23;82724;1349;1003020;-71
2021/12/28 08:18:50;;;;;;;38.80;19.80;;;;;;;-6.33;75.58;100251.71;82872;1333;1002810;-71
2021/12/28 08:21:03;;;;;;;29.20;14.70;;;;;;;-6.27;75.54;100247.30;82758;1347;1002997;-71
2021/12/28 08:23:13;;;;;;;41.60;21.30;;;;;;;-6.24;75.59;100244.69;83249;1349;22615;-71
2021/12/28 08:25:23;;;;;;;52.80;24.90;;;;;;;-6.18;75.42;100247.70;83280;1349;24294;-72
2021/12/28 08:27:35;;;;;;;44.80;23.90;;;;;;;-6.14;75.41;100246.65;83267;1347;22675;-71
2021/12/28 08:29:50;;;;;;;37.40;19.20;;;;;;;-6.09;75.57;100243.90;83339;1347;22918;-71
2021/12/28 08:32:00;;;;;;;43.40;22.10;;;;;;;-6.07;75.46;100246.66;82610;1349;1003878;-69
2021/12/28 08:34:13;;;;;;;41.60;22.20;;;;;;;-6.06;75.47;100256.20;82673;1348;1003015;-72
2021/12/28 08:36:26;;;;;;;39.20;21.80;;;;;;;-6.03;75.33;100259.50;83287;1346;22776;-74
2021/12/28 08:38:38;;;;;;;49.60;23.40;;;;;;;-6.01;75.29;100257.52;83326;1347;22606;-71
2021/12/28 08:40:48;;;;;;;61.70;26.50;;;;;;;-6.01;75.32;100253.09;82691;1349;1003855;-70
2021/12/28 08:42:59;;;;;;;42.20;20.20;;;;;;;-6.01;75.34;100255.30;83292;1349;22958;-74
2021/12/28 08:45:10;;;;;;;42.50;20.50;;;;;;;-6.02;75.32;100253.07;83274;1350;22623;-75
2021/12/28 08:47:22;;;;;;;34.80;20.00;;;;;;;-6.01;75.41;100243.60;83358;1349;22607;-74
2021/12/28 08:49:35;;;;;;;34.10;19.90;;;;;;;-5.94;75.24;100242.09;83269;1350;22932;-73
2021/12/28 08:51:59;;;;;;;40.40;21.00;;;;;;;-5.89;75.24;100240.98;83294;1349;23854;-73
2021/12/28 08:54:11;;;;;;;39.10;19.70;;;;;;;-5.85;75.06;100232.10;83289;1349;22621;-72
2021/12/28 08:56:21;;;;;;;42.00;20.90;;;;;;;-5.82;75.09;100228.92;83300;1349;23814;-72
2021/12/28 08:58:30;;;;;;;42.60;21.60;;;;;;;-5.76;75.02;100229.78;83236;1349;26081;-74
2021/12/28 09:00:40;;;;;;;45.30;22.60;;;;;;;-5.72;75.14;100225.12;82596;1349;1003347;-72
2021/12/28 09:02:51;;;;;;;37.00;22.00;;;;;;;-5.71;74.68;100230.92;83379;1350;22626;-73
2021/12/28 09:05:01;;;;;;;;;;;;;;;-5.73;74.86;100227.29;83302;1349;22974;-73
2021/12/28 09:07:08;;;;;;;;;;;;;;;-5.73;74.84;100233.08;83330;1349;24211;-71
2021/12/28 09:09:23;;;;;;;39.90;21.30;;;;;;;-5.77;74.66;100227.19;83286;1349;24757;-71
2021/12/28 09:11:35;;;;;;;40.20;22.30;;;;;;;-5.78;74.92;100224.79;83321;1349;22732;-74
2021/12/28 09:13:50;;;;;;;41.60;21.90;;;;;;;-5.79;74.63;100223.41;83239;1350;22668;-72
2021/12/28 09:16:00;;;;;;;38.00;19.00;;;;;;;-5.82;74.68;100215.02;83366;1349;24293;-72
2021/12/28 09:18:09;;;;;;;37.60;21.10;;;;;;;-5.82;74.76;100214.30;83310;1345;23974;-72
2021/12/28 09:20:21;;;;;;;31.10;20.70;;;;;;;-5.81;74.81;100210.46;83269;1350;22628;-72
2021/12/28 09:22:31;;;;;;;48.30;22.30;;;;;;;-5.78;74.92;100208.81;83290;1349;22635;-72
2021/12/28 09:24:44;;;;;;;44.20;21.90;;;;;;;-5.76;74.86;100204.98;83322;1350;22645;-73
2021/12/28 09:26:53;;;;;;;43.10;22.60;;;;;;;-5.70;74.90;100198.83;83268;1349;22972;-72
2021/12/28 09:29:03;;;;;;;37.90;22.70;;;;;;;-5.67;74.87;100199.39;82588;1350;1002960;-71
2021/12/28 09:31:11;;;;;;;;;;;;;;;-5.66;74.89;100193.83;83376;1350;22611;-71
2021/12/28 09:33:24;;;;;;;36.70;19.80;;;;;;;-5.64;74.94;100193.71;83288;1349;22747;-74
2021/12/28 09:35:36;;;;;;;38.70;19.70;;;;;;;-5.62;74.93;100184.23;82594;1350;1002576;-73
2021/12/28 09:37:45;;;;;;;41.70;21.70;;;;;;;-5.60;74.93;100174.09;82600;1349;1015837;-71
2021/12/28 09:39:58;;;;;;;36.70;20.30;;;;;;;-5.56;75.03;100173.66;83325;1349;24276;-72
2021/12/28 09:42:08;;;;;;;40.70;21.90;;;;;;;-5.51;74.95;100171.42;83306;1349;22645;-72
2021/12/28 09:44:18;;;;;;;33.80;20.10;;;;;;;-5.49;74.80;100163.30;83358;1349;24374;-72
2021/12/28 09:46:31;;;;;;;37.80;21.10;;;;;;;-5.44;75.07;100174.80;83280;1349;25474;-72
2021/12/28 09:48:40;;;;;;;37.60;19.90;;;;;;;-5.39;75.12;100167.79;83297;1349;24135;-72
2021/12/28 09:50:50;;;;;;;40.00;20.90;;;;;;;-5.34;75.00;100166.02;82556;1350;1003143;-72
2021/12/28 09:53:02;;;;;;;38.50;20.30;;;;;;;-5.29;74.93;100172.27;82572;1347;1003879;-72
2021/12/28 09:55:16;;;;;;;37.90;20.10;;;;;;;-5.26;74.89;100178.30;83337;1350;24294;-71